sensor_id;sensor_type;location;lat;lon;timestamp;P1;durP1;ratioP1;P2;durP2;ratioP2
48189;SDS011;33980;47.436;18.926;2023-10-19T00:01:08;7.65;;;3.58;;
48189;SDS011;33980;47.436;18.926;2023-10-19T00:03:42;8.85;;;3.90;;
48189;SDS011;33980;47.436;18.926;2023-10-19T00:06:12;10.02;;;3.58;;
48189;SDS011;33980;47.436;18.926;2023-10-19T00:08:45;8.55;;;4.07;;
48189;SDS011;33980;47.436;18.926;2023-10-19T00:11:17;6.22;;;3.25;;
48189;SDS011;33980;47.436;18.926;2023-10-19T00:13:51;7.43;;;4.25;;
48189;SDS011;33980;47.436;18.926;2023-10-19T00:16:23;6.32;;;3.85;;
48189;SDS011;33980;47.436;18.926;2023-10-19T00:18:56;8.73;;;3.50;;
48189;SDS011;33980;47.436;18.926;2023-10-19T00:21:28;8.18;;;4.50;;
48189;SDS011;33980;47.436;18.926;2023-10-19T00:23:57;7.95;;;4.12;;
48189;SDS011;33980;47.436;18.926;2023-10-19T00:26:31;7.15;;;4.00;;
48189;SDS011;33980;47.436;18.926;2023-10-19T00:29:05;8.02;;;3.50;;
48189;SDS011;33980;47.436;18.926;2023-10-19T00:31:47;6.72;;;4.30;;
48189;SDS011;33980;47.436;18.926;2023-10-19T00:34:17;8.73;;;3.97;;
48189;SDS011;33980;47.436;18.926;2023-10-19T00:36:56;11.43;;;4.78;;
48189;SDS011;33980;47.436;18.926;2023-10-19T00:39:35;6.97;;;3.70;;
48189;SDS011;33980;47.436;18.926;2023-10-19T00:42:15;9.15;;;4.22;;
48189;SDS011;33980;47.436;18.926;2023-10-19T00:44:52;6.68;;;3.72;;
48189;SDS011;33980;47.436;18.926;2023-10-19T00:47:30;6.35;;;4.10;;
48189;SDS011;33980;47.436;18.926;2023-10-19T00:50:08;9.02;;;4.43;;
48189;SDS011;33980;47.436;18.926;2023-10-19T00:52:50;11.48;;;4.47;;
48189;SDS011;33980;47.436;18.926;2023-10-19T00:55:25;8.38;;;4.47;;
48189;SDS011;33980;47.436;18.926;2023-10-19T00:57:58;6.73;;;4.33;;
48189;SDS011;33980;47.436;18.926;2023-10-19T01:00:40;7.85;;;4.60;;
48189;SDS011;33980;47.436;18.926;2023-10-19T01:03:12;7.62;;;4.32;;
48189;SDS011;33980;47.436;18.926;2023-10-19T01:05:47;7.53;;;3.92;;
48189;SDS011;33980;47.436;18.926;2023-10-19T01:08:16;9.65;;;4.53;;
48189;SDS011;33980;47.436;18.926;2023-10-19T01:10:52;9.52;;;5.25;;
48189;SDS011;33980;47.436;18.926;2023-10-19T01:13:22;9.18;;;4.95;;
48189;SDS011;33980;47.436;18.926;2023-10-19T01:16:04;7.87;;;4.53;;
48189;SDS011;33980;47.436;18.926;2023-10-19T01:18:43;6.82;;;4.35;;
48189;SDS011;33980;47.436;18.926;2023-10-19T01:21:24;10.95;;;5.18;;
48189;SDS011;33980;47.436;18.926;2023-10-19T01:24:07;8.55;;;5.10;;
48189;SDS011;33980;47.436;18.926;2023-10-19T01:26:44;8.68;;;5.55;;
48189;SDS011;33980;47.436;18.926;2023-10-19T01:29:20;9.30;;;4.82;;
48189;SDS011;33980;47.436;18.926;2023-10-19T01:31:54;11.23;;;4.65;;
48189;SDS011;33980;47.436;18.926;2023-10-19T01:34:33;10.63;;;5.05;;
48189;SDS011;33980;47.436;18.926;2023-10-19T01:37:08;10.48;;;5.07;;
48189;SDS011;33980;47.436;18.926;2023-10-19T01:39:48;10.57;;;5.82;;
48189;SDS011;33980;47.436;18.926;2023-10-19T01:42:16;9.00;;;5.15;;
48189;SDS011;33980;47.436;18.926;2023-10-19T01:44:45;8.38;;;5.18;;
48189;SDS011;33980;47.436;18.926;2023-10-19T01:47:13;11.68;;;5.53;;
48189;SDS011;33980;47.436;18.926;2023-10-19T01:49:44;8.52;;;5.55;;
48189;SDS011;33980;47.436;18.926;2023-10-19T01:52:19;7.68;;;4.80;;
48189;SDS011;33980;47.436;18.926;2023-10-19T01:55:01;7.57;;;5.35;;
48189;SDS011;33980;47.436;18.926;2023-10-19T01:57:38;7.75;;;4.35;;
48189;SDS011;33980;47.436;18.926;2023-10-19T02:00:10;14.07;;;6.53;;
48189;SDS011;33980;47.436;18.926;2023-10-19T02:05:26;6.62;;;4.30;;
48189;SDS011;33980;47.436;18.926;2023-10-19T02:08:03;10.40;;;5.60;;
48189;SDS011;33980;47.436;18.926;2023-10-19T02:10:40;9.15;;;5.07;;
48189;SDS011;33980;47.436;18.926;2023-10-19T02:13:15;12.45;;;4.97;;
48189;SDS011;33980;47.436;18.926;2023-10-19T02:15:53;10.88;;;5.40;;
48189;SDS011;33980;47.436;18.926;2023-10-19T02:18:21;10.25;;;5.50;;
48189;SDS011;33980;47.436;18.926;2023-10-19T02:20:52;11.52;;;5.25;;
48189;SDS011;33980;47.436;18.926;2023-10-19T02:23:23;19.23;;;5.22;;
48189;SDS011;33980;47.436;18.926;2023-10-19T02:25:57;9.93;;;5.68;;
48189;SDS011;33980;47.436;18.926;2023-10-19T02:28:25;9.35;;;5.20;;
48189;SDS011;33980;47.436;18.926;2023-10-19T02:30:59;10.15;;;5.87;;
48189;SDS011;33980;47.436;18.926;2023-10-19T02:33:38;10.23;;;5.72;;
48189;SDS011;33980;47.436;18.926;2023-10-19T02:36:07;8.40;;;4.55;;
48189;SDS011;33980;47.436;18.926;2023-10-19T02:38:40;8.73;;;5.00;;
48189;SDS011;33980;47.436;18.926;2023-10-19T02:41:17;9.52;;;6.03;;
48189;SDS011;33980;47.436;18.926;2023-10-19T02:43:46;10.45;;;5.10;;
48189;SDS011;33980;47.436;18.926;2023-10-19T02:46:29;9.18;;;6.57;;
48189;SDS011;33980;47.436;18.926;2023-10-19T02:49:02;13.82;;;5.68;;
48189;SDS011;33980;47.436;18.926;2023-10-19T02:51:32;10.30;;;6.03;;
48189;SDS011;33980;47.436;18.926;2023-10-19T02:54:04;12.15;;;6.35;;
48189;SDS011;33980;47.436;18.926;2023-10-19T02:56:42;13.15;;;7.30;;
48189;SDS011;33980;47.436;18.926;2023-10-19T02:59:15;11.95;;;6.05;;
48189;SDS011;33980;47.436;18.926;2023-10-19T03:01:53;12.13;;;6.93;;
48189;SDS011;33980;47.436;18.926;2023-10-19T03:04:31;14.15;;;6.18;;
48189;SDS011;33980;47.436;18.926;2023-10-19T03:07:03;9.38;;;6.32;;
48189;SDS011;33980;47.436;18.926;2023-10-19T03:09:32;10.52;;;6.07;;
48189;SDS011;33980;47.436;18.926;2023-10-19T03:12:06;12.20;;;7.65;;
48189;SDS011;33980;47.436;18.926;2023-10-19T03:14:37;12.68;;;6.65;;
48189;SDS011;33980;47.436;18.926;2023-10-19T03:17:06;12.45;;;6.28;;
48189;SDS011;33980;47.436;18.926;2023-10-19T03:19:36;11.30;;;6.78;;
48189;SDS011;33980;47.436;18.926;2023-10-19T03:22:10;11.48;;;6.65;;
48189;SDS011;33980;47.436;18.926;2023-10-19T03:24:39;12.15;;;6.93;;
48189;SDS011;33980;47.436;18.926;2023-10-19T03:27:14;9.50;;;5.78;;
48189;SDS011;33980;47.436;18.926;2023-10-19T03:29:45;11.25;;;6.75;;
48189;SDS011;33980;47.436;18.926;2023-10-19T03:32:22;11.57;;;6.53;;
48189;SDS011;33980;47.436;18.926;2023-10-19T03:35:03;13.93;;;6.78;;
48189;SDS011;33980;47.436;18.926;2023-10-19T03:37:34;10.87;;;7.23;;
48189;SDS011;33980;47.436;18.926;2023-10-19T03:40:07;13.30;;;7.85;;
48189;SDS011;33980;47.436;18.926;2023-10-19T03:42:40;13.55;;;7.62;;
48189;SDS011;33980;47.436;18.926;2023-10-19T03:45:09;14.50;;;7.33;;
48189;SDS011;33980;47.436;18.926;2023-10-19T03:47:52;18.45;;;8.13;;
48189;SDS011;33980;47.436;18.926;2023-10-19T03:50:31;10.27;;;6.95;;
48189;SDS011;33980;47.436;18.926;2023-10-19T03:53:00;13.15;;;7.43;;
48189;SDS011;33980;47.436;18.926;2023-10-19T03:55:31;10.48;;;6.72;;
48189;SDS011;33980;47.436;18.926;2023-10-19T03:58:08;12.90;;;6.95;;
48189;SDS011;33980;47.436;18.926;2023-10-19T04:00:38;11.40;;;7.07;;
48189;SDS011;33980;47.436;18.926;2023-10-19T04:03:15;15.07;;;8.43;;
48189;SDS011;33980;47.436;18.926;2023-10-19T04:05:44;12.95;;;7.12;;
48189;SDS011;33980;47.436;18.926;2023-10-19T04:08:18;11.12;;;6.47;;
48189;SDS011;33980;47.436;18.926;2023-10-19T04:10:56;12.68;;;8.23;;
48189;SDS011;33980;47.436;18.926;2023-10-19T04:13:41;16.85;;;7.68;;
48189;SDS011;33980;47.436;18.926;2023-10-19T04:16:10;16.30;;;6.53;;
48189;SDS011;33980;47.436;18.926;2023-10-19T04:18:47;10.50;;;6.28;;
48189;SDS011;33980;47.436;18.926;2023-10-19T04:21:25;12.23;;;7.32;;
48189;SDS011;33980;47.436;18.926;2023-10-19T04:23:54;15.05;;;8.13;;
48189;SDS011;33980;47.436;18.926;2023-10-19T04:26:28;13.40;;;7.70;;
48189;SDS011;33980;47.436;18.926;2023-10-19T04:29:08;9.02;;;6.35;;
48189;SDS011;33980;47.436;18.926;2023-10-19T04:34:17;18.15;;;6.82;;
48189;SDS011;33980;47.436;18.926;2023-10-19T04:36:54;12.65;;;7.47;;
48189;SDS011;33980;47.436;18.926;2023-10-19T04:39:25;12.57;;;6.78;;
48189;SDS011;33980;47.436;18.926;2023-10-19T04:41:57;10.57;;;6.62;;
48189;SDS011;33980;47.436;18.926;2023-10-19T04:44:31;15.30;;;5.97;;
48189;SDS011;33980;47.436;18.926;2023-10-19T04:47:01;13.15;;;7.15;;
48189;SDS011;33980;47.436;18.926;2023-10-19T04:49:37;15.13;;;8.55;;
48189;SDS011;33980;47.436;18.926;2023-10-19T04:52:12;11.98;;;7.47;;
48189;SDS011;33980;47.436;18.926;2023-10-19T04:54:41;12.60;;;7.10;;
48189;SDS011;33980;47.436;18.926;2023-10-19T04:57:10;12.77;;;7.15;;
48189;SDS011;33980;47.436;18.926;2023-10-19T04:59:41;12.68;;;7.25;;
48189;SDS011;33980;47.436;18.926;2023-10-19T05:02:12;12.82;;;7.18;;
48189;SDS011;33980;47.436;18.926;2023-10-19T05:04:42;9.88;;;6.57;;
48189;SDS011;33980;47.436;18.926;2023-10-19T05:07:12;11.30;;;7.03;;
48189;SDS011;33980;47.436;18.926;2023-10-19T05:09:45;12.10;;;6.65;;
48189;SDS011;33980;47.436;18.926;2023-10-19T05:12:17;9.45;;;6.00;;
48189;SDS011;33980;47.436;18.926;2023-10-19T05:14:48;14.20;;;6.53;;
48189;SDS011;33980;47.436;18.926;2023-10-19T05:17:18;12.43;;;7.37;;
48189;SDS011;33980;47.436;18.926;2023-10-19T05:19:48;13.38;;;7.30;;
48189;SDS011;33980;47.436;18.926;2023-10-19T05:22:18;11.07;;;5.97;;
48189;SDS011;33980;47.436;18.926;2023-10-19T05:27:18;17.25;;;7.07;;
48189;SDS011;33980;47.436;18.926;2023-10-19T05:29:52;15.57;;;7.87;;
48189;SDS011;33980;47.436;18.926;2023-10-19T05:32:23;13.88;;;6.72;;
48189;SDS011;33980;47.436;18.926;2023-10-19T05:37:25;13.55;;;6.93;;
48189;SDS011;33980;47.436;18.926;2023-10-19T05:39:56;11.63;;;7.97;;
48189;SDS011;33980;47.436;18.926;2023-10-19T05:42:32;12.65;;;8.45;;
48189;SDS011;33980;47.436;18.926;2023-10-19T05:45:08;13.85;;;6.97;;
48189;SDS011;33980;47.436;18.926;2023-10-19T05:47:40;14.80;;;7.68;;
48189;SDS011;33980;47.436;18.926;2023-10-19T05:50:15;12.20;;;6.47;;
48189;SDS011;33980;47.436;18.926;2023-10-19T05:52:45;12.27;;;6.78;;
48189;SDS011;33980;47.436;18.926;2023-10-19T05:55:26;13.10;;;6.45;;
48189;SDS011;33980;47.436;18.926;2023-10-19T05:58:04;17.02;;;7.57;;
48189;SDS011;33980;47.436;18.926;2023-10-19T06:00:34;11.73;;;7.25;;
48189;SDS011;33980;47.436;18.926;2023-10-19T06:03:03;12.03;;;7.33;;
48189;SDS011;33980;47.436;18.926;2023-10-19T06:05:36;11.73;;;6.50;;
48189;SDS011;33980;47.436;18.926;2023-10-19T06:08:05;12.27;;;7.47;;
48189;SDS011;33980;47.436;18.926;2023-10-19T06:10:34;11.32;;;7.45;;
48189;SDS011;33980;47.436;18.926;2023-10-19T06:13:08;12.98;;;7.12;;
48189;SDS011;33980;47.436;18.926;2023-10-19T06:15:40;13.27;;;6.70;;
48189;SDS011;33980;47.436;18.926;2023-10-19T06:18:09;13.48;;;6.85;;
48189;SDS011;33980;47.436;18.926;2023-10-19T06:20:42;13.73;;;7.87;;
48189;SDS011;33980;47.436;18.926;2023-10-19T06:23:12;11.45;;;7.10;;
48189;SDS011;33980;47.436;18.926;2023-10-19T06:25:41;13.60;;;7.57;;
48189;SDS011;33980;47.436;18.926;2023-10-19T06:28:10;16.08;;;7.62;;
48189;SDS011;33980;47.436;18.926;2023-10-19T06:30:43;13.18;;;6.68;;
48189;SDS011;33980;47.436;18.926;2023-10-19T06:33:15;11.85;;;7.43;;
48189;SDS011;33980;47.436;18.926;2023-10-19T06:35:45;12.15;;;7.05;;
48189;SDS011;33980;47.436;18.926;2023-10-19T06:38:16;15.15;;;7.35;;
48189;SDS011;33980;47.436;18.926;2023-10-19T06:40:58;10.13;;;6.32;;
48189;SDS011;33980;47.436;18.926;2023-10-19T06:43:38;15.77;;;8.02;;
48189;SDS011;33980;47.436;18.926;2023-10-19T06:46:08;12.95;;;7.28;;
48189;SDS011;33980;47.436;18.926;2023-10-19T06:48:39;12.37;;;6.28;;
48189;SDS011;33980;47.436;18.926;2023-10-19T06:51:11;11.05;;;6.70;;
48189;SDS011;33980;47.436;18.926;2023-10-19T06:53:40;13.98;;;6.70;;
48189;SDS011;33980;47.436;18.926;2023-10-19T06:56:09;13.32;;;6.37;;
48189;SDS011;33980;47.436;18.926;2023-10-19T06:58:39;13.10;;;7.57;;
48189;SDS011;33980;47.436;18.926;2023-10-19T07:01:14;13.62;;;8.30;;
48189;SDS011;33980;47.436;18.926;2023-10-19T07:03:44;14.05;;;7.40;;
48189;SDS011;33980;47.436;18.926;2023-10-19T07:06:17;13.85;;;8.02;;
48189;SDS011;33980;47.436;18.926;2023-10-19T07:08:45;12.00;;;6.32;;
48189;SDS011;33980;47.436;18.926;2023-10-19T07:11:15;10.73;;;6.87;;
48189;SDS011;33980;47.436;18.926;2023-10-19T07:13:46;11.40;;;7.05;;
48189;SDS011;33980;47.436;18.926;2023-10-19T07:16:17;10.93;;;6.32;;
48189;SDS011;33980;47.436;18.926;2023-10-19T07:18:50;13.45;;;7.10;;
48189;SDS011;33980;47.436;18.926;2023-10-19T07:21:22;13.23;;;6.72;;
48189;SDS011;33980;47.436;18.926;2023-10-19T07:23:51;10.00;;;5.97;;
48189;SDS011;33980;47.436;18.926;2023-10-19T07:26:22;10.50;;;6.10;;
48189;SDS011;33980;47.436;18.926;2023-10-19T07:28:59;11.93;;;6.37;;
48189;SDS011;33980;47.436;18.926;2023-10-19T07:31:33;10.38;;;6.45;;
48189;SDS011;33980;47.436;18.926;2023-10-19T07:34:02;15.15;;;7.20;;
48189;SDS011;33980;47.436;18.926;2023-10-19T07:36:35;13.38;;;6.85;;
48189;SDS011;33980;47.436;18.926;2023-10-19T07:39:06;11.90;;;6.30;;
48189;SDS011;33980;47.436;18.926;2023-10-19T07:41:41;13.62;;;6.15;;
48189;SDS011;33980;47.436;18.926;2023-10-19T07:44:24;11.63;;;6.22;;
48189;SDS011;33980;47.436;18.926;2023-10-19T07:46:57;15.07;;;6.95;;
48189;SDS011;33980;47.436;18.926;2023-10-19T07:49:28;10.70;;;5.75;;
48189;SDS011;33980;47.436;18.926;2023-10-19T07:52:06;10.60;;;6.75;;
48189;SDS011;33980;47.436;18.926;2023-10-19T07:54:44;11.43;;;6.72;;
48189;SDS011;33980;47.436;18.926;2023-10-19T07:57:16;11.63;;;5.53;;
48189;SDS011;33980;47.436;18.926;2023-10-19T07:59:45;14.90;;;7.40;;
48189;SDS011;33980;47.436;18.926;2023-10-19T08:02:18;12.00;;;5.97;;
48189;SDS011;33980;47.436;18.926;2023-10-19T08:04:47;8.00;;;5.28;;
48189;SDS011;33980;47.436;18.926;2023-10-19T08:07:20;12.68;;;6.75;;
48189;SDS011;33980;47.436;18.926;2023-10-19T08:09:48;9.27;;;5.55;;
48189;SDS011;33980;47.436;18.926;2023-10-19T08:12:17;11.45;;;6.37;;
48189;SDS011;33980;47.436;18.926;2023-10-19T08:14:51;11.35;;;7.15;;
48189;SDS011;33980;47.436;18.926;2023-10-19T08:17:24;9.35;;;5.75;;
48189;SDS011;33980;47.436;18.926;2023-10-19T08:19:53;9.75;;;5.03;;
48189;SDS011;33980;47.436;18.926;2023-10-19T08:22:22;9.82;;;5.68;;
48189;SDS011;33980;47.436;18.926;2023-10-19T08:24:51;10.05;;;5.90;;
48189;SDS011;33980;47.436;18.926;2023-10-19T08:27:23;9.93;;;5.53;;
48189;SDS011;33980;47.436;18.926;2023-10-19T08:29:54;9.43;;;5.72;;
48189;SDS011;33980;47.436;18.926;2023-10-19T08:32:28;15.48;;;5.60;;
48189;SDS011;33980;47.436;18.926;2023-10-19T08:35:00;9.45;;;5.75;;
48189;SDS011;33980;47.436;18.926;2023-10-19T08:37:34;9.75;;;5.85;;
48189;SDS011;33980;47.436;18.926;2023-10-19T08:40:06;11.88;;;5.75;;
48189;SDS011;33980;47.436;18.926;2023-10-19T08:42:41;11.27;;;5.82;;
48189;SDS011;33980;47.436;18.926;2023-10-19T08:45:15;13.00;;;5.60;;
48189;SDS011;33980;47.436;18.926;2023-10-19T08:47:47;7.97;;;4.43;;
48189;SDS011;33980;47.436;18.926;2023-10-19T08:50:23;10.65;;;5.65;;
48189;SDS011;33980;47.436;18.926;2023-10-19T08:52:56;10.93;;;5.03;;
48189;SDS011;33980;47.436;18.926;2023-10-19T08:55:25;7.97;;;4.78;;
48189;SDS011;33980;47.436;18.926;2023-10-19T09:00:49;12.40;;;5.80;;
48189;SDS011;33980;47.436;18.926;2023-10-19T09:03:31;11.53;;;5.67;;
48189;SDS011;33980;47.436;18.926;2023-10-19T09:06:01;8.88;;;4.68;;
48189;SDS011;33980;47.436;18.926;2023-10-19T09:08:33;11.20;;;5.75;;
48189;SDS011;33980;47.436;18.926;2023-10-19T09:13:45;10.23;;;4.93;;
48189;SDS011;33980;47.436;18.926;2023-10-19T09:16:19;12.70;;;5.07;;
48189;SDS011;33980;47.436;18.926;2023-10-19T09:21:44;8.82;;;5.50;;
48189;SDS011;33980;47.436;18.926;2023-10-19T09:24:18;11.48;;;5.07;;
48189;SDS011;33980;47.436;18.926;2023-10-19T09:26:48;10.35;;;5.75;;
48189;SDS011;33980;47.436;18.926;2023-10-19T09:29:24;13.48;;;6.30;;
48189;SDS011;33980;47.436;18.926;2023-10-19T09:31:55;9.35;;;5.75;;
48189;SDS011;33980;47.436;18.926;2023-10-19T09:34:31;11.35;;;5.55;;
48189;SDS011;33980;47.436;18.926;2023-10-19T09:37:06;12.07;;;6.15;;
48189;SDS011;33980;47.436;18.926;2023-10-19T09:39:42;8.02;;;4.55;;
48189;SDS011;33980;47.436;18.926;2023-10-19T09:42:11;10.52;;;4.78;;
48189;SDS011;33980;47.436;18.926;2023-10-19T09:44:54;11.33;;;5.80;;
48189;SDS011;33980;47.436;18.926;2023-10-19T09:47:34;9.93;;;5.50;;
48189;SDS011;33980;47.436;18.926;2023-10-19T09:50:06;12.20;;;4.50;;
48189;SDS011;33980;47.436;18.926;2023-10-19T09:52:36;9.98;;;5.72;;
48189;SDS011;33980;47.436;18.926;2023-10-19T09:55:06;9.48;;;5.28;;
48189;SDS011;33980;47.436;18.926;2023-10-19T09:57:43;11.85;;;5.70;;
48189;SDS011;33980;47.436;18.926;2023-10-19T10:00:17;11.30;;;5.87;;
48189;SDS011;33980;47.436;18.926;2023-10-19T10:02:52;11.20;;;5.65;;
48189;SDS011;33980;47.436;18.926;2023-10-19T10:08:30;10.60;;;5.18;;
48189;SDS011;33980;47.436;18.926;2023-10-19T10:11:13;12.95;;;5.70;;
48189;SDS011;33980;47.436;18.926;2023-10-19T10:13:47;9.02;;;5.40;;
48189;SDS011;33980;47.436;18.926;2023-10-19T10:16:22;10.77;;;5.43;;
48189;SDS011;33980;47.436;18.926;2023-10-19T10:18:55;10.70;;;5.43;;
48189;SDS011;33980;47.436;18.926;2023-10-19T10:21:32;10.18;;;6.07;;
48189;SDS011;33980;47.436;18.926;2023-10-19T10:24:03;13.07;;;6.25;;
48189;SDS011;33980;47.436;18.926;2023-10-19T10:29:30;8.15;;;4.65;;
48189;SDS011;33980;47.436;18.926;2023-10-19T10:32:00;8.98;;;5.30;;
48189;SDS011;33980;47.436;18.926;2023-10-19T10:34:41;10.45;;;5.28;;
48189;SDS011;33980;47.436;18.926;2023-10-19T10:37:17;9.35;;;5.47;;
48189;SDS011;33980;47.436;18.926;2023-10-19T10:39:47;12.88;;;5.95;;
48189;SDS011;33980;47.436;18.926;2023-10-19T10:42:25;11.40;;;6.07;;
48189;SDS011;33980;47.436;18.926;2023-10-19T10:44:53;11.57;;;5.57;;
48189;SDS011;33980;47.436;18.926;2023-10-19T10:47:26;10.50;;;5.72;;
48189;SDS011;33980;47.436;18.926;2023-10-19T10:50:01;13.38;;;6.20;;
48189;SDS011;33980;47.436;18.926;2023-10-19T10:52:33;11.05;;;5.45;;
48189;SDS011;33980;47.436;18.926;2023-10-19T10:55:11;9.48;;;5.28;;
48189;SDS011;33980;47.436;18.926;2023-10-19T10:57:44;12.07;;;6.65;;
48189;SDS011;33980;47.436;18.926;2023-10-19T11:00:14;12.45;;;6.78;;
48189;SDS011;33980;47.436;18.926;2023-10-19T11:02:44;9.82;;;5.75;;
48189;SDS011;33980;47.436;18.926;2023-10-19T11:05:16;10.85;;;5.28;;
48189;SDS011;33980;47.436;18.926;2023-10-19T11:08:04;11.68;;;6.18;;
48189;SDS011;33980;47.436;18.926;2023-10-19T11:10:37;10.77;;;5.15;;
48189;SDS011;33980;47.436;18.926;2023-10-19T11:13:07;10.10;;;6.12;;
48189;SDS011;33980;47.436;18.926;2023-10-19T11:15:46;9.73;;;5.43;;
48189;SDS011;33980;47.436;18.926;2023-10-19T11:18:28;10.45;;;5.00;;
48189;SDS011;33980;47.436;18.926;2023-10-19T11:21:05;9.18;;;5.57;;
48189;SDS011;33980;47.436;18.926;2023-10-19T11:23:42;12.48;;;5.30;;
48189;SDS011;33980;47.436;18.926;2023-10-19T11:26:12;11.65;;;5.80;;
48189;SDS011;33980;47.436;18.926;2023-10-19T11:28:45;9.23;;;5.20;;
48189;SDS011;33980;47.436;18.926;2023-10-19T11:31:18;10.07;;;6.00;;
48189;SDS011;33980;47.436;18.926;2023-10-19T11:33:50;12.82;;;6.97;;
48189;SDS011;33980;47.436;18.926;2023-10-19T11:36:21;10.25;;;6.55;;
48189;SDS011;33980;47.436;18.926;2023-10-19T11:38:53;12.23;;;5.50;;
48189;SDS011;33980;47.436;18.926;2023-10-19T11:41:24;10.98;;;6.45;;
48189;SDS011;33980;47.436;18.926;2023-10-19T11:43:53;11.02;;;6.62;;
48189;SDS011;33980;47.436;18.926;2023-10-19T11:46:24;10.77;;;5.80;;
48189;SDS011;33980;47.436;18.926;2023-10-19T11:48:53;11.80;;;6.53;;
48189;SDS011;33980;47.436;18.926;2023-10-19T11:51:23;11.75;;;5.78;;
48189;SDS011;33980;47.436;18.926;2023-10-19T11:53:56;8.57;;;4.60;;
48189;SDS011;33980;47.436;18.926;2023-10-19T11:56:26;10.57;;;5.53;;
48189;SDS011;33980;47.436;18.926;2023-10-19T11:58:58;10.23;;;5.53;;
48189;SDS011;33980;47.436;18.926;2023-10-19T12:01:36;9.85;;;5.28;;
48189;SDS011;33980;47.436;18.926;2023-10-19T12:04:06;11.18;;;5.03;;
48189;SDS011;33980;47.436;18.926;2023-10-19T12:06:39;10.40;;;5.40;;
48189;SDS011;33980;47.436;18.926;2023-10-19T12:09:17;10.90;;;6.68;;
48189;SDS011;33980;47.436;18.926;2023-10-19T12:11:45;11.00;;;6.43;;
48189;SDS011;33980;47.436;18.926;2023-10-19T12:14:22;9.40;;;6.32;;
48189;SDS011;33980;47.436;18.926;2023-10-19T12:16:51;12.32;;;6.10;;
48189;SDS011;33980;47.436;18.926;2023-10-19T12:19:26;11.35;;;5.53;;
48189;SDS011;33980;47.436;18.926;2023-10-19T12:21:59;10.88;;;5.20;;
48189;SDS011;33980;47.436;18.926;2023-10-19T12:24:30;8.63;;;4.95;;
48189;SDS011;33980;47.436;18.926;2023-10-19T12:26:59;12.07;;;6.10;;
48189;SDS011;33980;47.436;18.926;2023-10-19T12:29:29;12.18;;;6.82;;
48189;SDS011;33980;47.436;18.926;2023-10-19T12:31:58;12.15;;;5.85;;
48189;SDS011;33980;47.436;18.926;2023-10-19T12:34:28;10.43;;;6.12;;
48189;SDS011;33980;47.436;18.926;2023-10-19T12:36:58;11.98;;;6.75;;
48189;SDS011;33980;47.436;18.926;2023-10-19T12:39:32;10.07;;;5.70;;
48189;SDS011;33980;47.436;18.926;2023-10-19T12:42:13;11.45;;;6.90;;
48189;SDS011;33980;47.436;18.926;2023-10-19T12:44:43;10.88;;;5.45;;
48189;SDS011;33980;47.436;18.926;2023-10-19T12:47:15;11.40;;;6.10;;
48189;SDS011;33980;47.436;18.926;2023-10-19T12:49:47;12.10;;;6.12;;
48189;SDS011;33980;47.436;18.926;2023-10-19T12:52:20;12.15;;;7.00;;
48189;SDS011;33980;47.436;18.926;2023-10-19T12:54:53;11.50;;;5.75;;
48189;SDS011;33980;47.436;18.926;2023-10-19T12:57:26;10.27;;;5.95;;
48189;SDS011;33980;47.436;18.926;2023-10-19T13:00:02;11.18;;;6.20;;
48189;SDS011;33980;47.436;18.926;2023-10-19T13:02:51;10.52;;;6.20;;
48189;SDS011;33980;47.436;18.926;2023-10-19T13:05:29;10.93;;;7.10;;
48189;SDS011;33980;47.436;18.926;2023-10-19T13:08:05;12.05;;;6.07;;
48189;SDS011;33980;47.436;18.926;2023-10-19T13:10:38;11.63;;;6.70;;
48189;SDS011;33980;47.436;18.926;2023-10-19T13:13:09;12.90;;;6.50;;
48189;SDS011;33980;47.436;18.926;2023-10-19T13:15:43;12.18;;;6.30;;
48189;SDS011;33980;47.436;18.926;2023-10-19T13:18:13;10.90;;;5.65;;
48189;SDS011;33980;47.436;18.926;2023-10-19T13:20:49;9.98;;;6.05;;
48189;SDS011;33980;47.436;18.926;2023-10-19T13:23:21;13.45;;;7.28;;
48189;SDS011;33980;47.436;18.926;2023-10-19T13:25:52;12.48;;;7.43;;
48189;SDS011;33980;47.436;18.926;2023-10-19T13:28:27;11.90;;;6.57;;
48189;SDS011;33980;47.436;18.926;2023-10-19T13:30:56;13.38;;;7.32;;
48189;SDS011;33980;47.436;18.926;2023-10-19T13:33:25;10.70;;;6.18;;
48189;SDS011;33980;47.436;18.926;2023-10-19T13:35:56;10.82;;;6.80;;
48189;SDS011;33980;47.436;18.926;2023-10-19T13:38:29;13.30;;;6.70;;
48189;SDS011;33980;47.436;18.926;2023-10-19T13:40:59;11.65;;;7.35;;
48189;SDS011;33980;47.436;18.926;2023-10-19T13:43:38;13.48;;;7.32;;
48189;SDS011;33980;47.436;18.926;2023-10-19T13:46:28;11.85;;;6.45;;
48189;SDS011;33980;47.436;18.926;2023-10-19T13:49:02;10.23;;;5.78;;
48189;SDS011;33980;47.436;18.926;2023-10-19T13:51:33;11.88;;;6.28;;
48189;SDS011;33980;47.436;18.926;2023-10-19T13:54:05;11.38;;;6.93;;
48189;SDS011;33980;47.436;18.926;2023-10-19T13:56:38;12.90;;;6.97;;
48189;SDS011;33980;47.436;18.926;2023-10-19T13:59:07;11.10;;;6.93;;
48189;SDS011;33980;47.436;18.926;2023-10-19T14:01:36;9.95;;;6.60;;
48189;SDS011;33980;47.436;18.926;2023-10-19T14:04:08;17.52;;;6.47;;
48189;SDS011;33980;47.436;18.926;2023-10-19T14:09:12;13.15;;;5.93;;
48189;SDS011;33980;47.436;18.926;2023-10-19T14:11:45;10.20;;;6.28;;
48189;SDS011;33980;47.436;18.926;2023-10-19T14:14:14;12.45;;;6.80;;
48189;SDS011;33980;47.436;18.926;2023-10-19T14:16:43;13.52;;;7.20;;
48189;SDS011;33980;47.436;18.926;2023-10-19T14:19:17;10.55;;;5.97;;
48189;SDS011;33980;47.436;18.926;2023-10-19T14:21:52;12.77;;;6.35;;
48189;SDS011;33980;47.436;18.926;2023-10-19T14:26:58;11.68;;;5.97;;
48189;SDS011;33980;47.436;18.926;2023-10-19T14:29:27;10.10;;;5.95;;
48189;SDS011;33980;47.436;18.926;2023-10-19T14:31:59;11.02;;;6.43;;
48189;SDS011;33980;47.436;18.926;2023-10-19T14:34:28;14.05;;;6.47;;
48189;SDS011;33980;47.436;18.926;2023-10-19T14:37:03;13.55;;;6.35;;
48189;SDS011;33980;47.436;18.926;2023-10-19T14:39:41;10.02;;;5.70;;
48189;SDS011;33980;47.436;18.926;2023-10-19T14:42:11;10.98;;;5.72;;
48189;SDS011;33980;47.436;18.926;2023-10-19T14:44:43;11.73;;;6.40;;
48189;SDS011;33980;47.436;18.926;2023-10-19T14:47:14;12.90;;;6.90;;
48189;SDS011;33980;47.436;18.926;2023-10-19T14:49:43;13.27;;;6.97;;
48189;SDS011;33980;47.436;18.926;2023-10-19T14:52:12;10.45;;;5.45;;
48189;SDS011;33980;47.436;18.926;2023-10-19T14:54:50;15.70;;;7.85;;
48189;SDS011;33980;47.436;18.926;2023-10-19T14:57:27;15.73;;;7.10;;
48189;SDS011;33980;47.436;18.926;2023-10-19T14:59:57;11.77;;;6.87;;
48189;SDS011;33980;47.436;18.926;2023-10-19T15:02:43;11.32;;;5.57;;
48189;SDS011;33980;47.436;18.926;2023-10-19T15:05:16;11.02;;;6.40;;
48189;SDS011;33980;47.436;18.926;2023-10-19T15:07:53;11.43;;;6.55;;
48189;SDS011;33980;47.436;18.926;2023-10-19T15:10:26;11.77;;;5.93;;
48189;SDS011;33980;47.436;18.926;2023-10-19T15:12:57;12.88;;;6.12;;
48189;SDS011;33980;47.436;18.926;2023-10-19T15:15:39;12.55;;;6.75;;
48189;SDS011;33980;47.436;18.926;2023-10-19T15:18:09;13.77;;;6.80;;
48189;SDS011;33980;47.436;18.926;2023-10-19T15:20:39;15.98;;;6.40;;
48189;SDS011;33980;47.436;18.926;2023-10-19T15:23:08;10.77;;;6.20;;
48189;SDS011;33980;47.436;18.926;2023-10-19T15:25:41;13.18;;;5.93;;
48189;SDS011;33980;47.436;18.926;2023-10-19T15:28:14;12.25;;;7.05;;